sensor_id;sensor_type;location;lat;lon;timestamp;pressure;altitude;pressure_sealevel;temperature;humidity
74960;BME280;63518;49.572;1.106;2023-07-31T00:00:44;99504.31;;;16.27;100.00
74960;BME280;63518;49.572;1.106;2023-07-31T00:03:13;99501.34;;;16.41;100.00
74960;BME280;63518;49.572;1.106;2023-07-31T00:05:40;99493.44;;;16.08;100.00
74960;BME280;63518;49.572;1.106;2023-07-31T00:08:11;99498.22;;;16.34;100.00
74960;BME280;63518;49.572;1.106;2023-07-31T00:10:42;99486.25;;;16.16;100.00
74960;BME280;63518;49.572;1.106;2023-07-31T00:13:11;99473.00;;;15.96;100.00
74960;BME280;63518;49.572;1.106;2023-07-31T00:15:39;99490.03;;;16.12;100.00
74960;BME280;63518;49.572;1.106;2023-07-31T00:18:10;99475.81;;;16.13;100.00
74960;BME280;63518;49.572;1.106;2023-07-31T00:20:37;99465.63;;;15.74;100.00
74960;BME280;63518;49.572;1.106;2023-07-31T00:23:07;99478.88;;;16.03;100.00
74960;BME280;63518;49.572;1.106;2023-07-31T00:25:34;99492.50;;;16.13;100.00
74960;BME280;63518;49.572;1.106;2023-07-31T00:28:24;99470.38;;;15.82;100.00
74960;BME280;63518;49.572;1.106;2023-07-31T00:30:52;99499.22;;;16.29;100.00
74960;BME280;63518;49.572;1.106;2023-07-31T00:33:22;99497.38;;;16.16;100.00
74960;BME280;63518;49.572;1.106;2023-07-31T00:36:02;99497.53;;;16.11;100.00
74960;BME280;63518;49.572;1.106;2023-07-31T00:38:38;99468.22;;;15.88;100.00
74960;BME280;63518;49.572;1.106;2023-07-31T00:41:07;99453.88;;;16.03;100.00
74960;BME280;63518;49.572;1.106;2023-07-31T00:43:37;99462.88;;;16.00;100.00
74960;BME280;63518;49.572;1.106;2023-07-31T00:46:06;99494.28;;;16.18;100.00
74960;BME280;63518;49.572;1.106;2023-07-31T00:48:43;99460.75;;;16.05;100.00
74960;BME280;63518;49.572;1.106;2023-07-31T00:51:22;99494.50;;;16.30;100.00
74960;BME280;63518;49.572;1.106;2023-07-31T00:53:54;99482.06;;;16.27;100.00
74960;BME280;63518;49.572;1.106;2023-07-31T00:56:23;99468.22;;;15.88;100.00
74960;BME280;63518;49.572;1.106;2023-07-31T00:58:53;99475.50;;;16.23;100.00
74960;BME280;63518;49.572;1.106;2023-07-31T01:01:20;99465.66;;;16.00;100.00
74960;BME280;63518;49.572;1.106;2023-07-31T01:03:50;99484.59;;;15.89;100.00
74960;BME280;63518;49.572;1.106;2023-07-31T01:12:07;99473.50;;;15.89;100.00
74960;BME280;63518;49.572;1.106;2023-07-31T01:14:36;99482.78;;;15.85;100.00
74960;BME280;63518;49.572;1.106;2023-07-31T01:17:07;99485.22;;;15.77;100.00
74960;BME280;63518;49.572;1.106;2023-07-31T01:19:34;99487.06;;;15.99;100.00
74960;BME280;63518;49.572;1.106;2023-07-31T01:22:12;99498.34;;;16.03;100.00
74960;BME280;63518;49.572;1.106;2023-07-31T01:24:56;99476.91;;;16.03;100.00
74960;BME280;63518;49.572;1.106;2023-07-31T01:27:30;99465.78;;;15.86;100.00
74960;BME280;63518;49.572;1.106;2023-07-31T01:30:08;99472.34;;;15.90;100.00
74960;BME280;63518;49.572;1.106;2023-07-31T01:32:42;99459.41;;;15.86;100.00
74960;BME280;63518;49.572;1.106;2023-07-31T01:35:09;99469.56;;;15.82;100.00
74960;BME280;63518;49.572;1.106;2023-07-31T01:37:36;99445.03;;;16.09;100.00
74960;BME280;63518;49.572;1.106;2023-07-31T01:40:04;99457.47;;;16.03;100.00
74960;BME280;63518;49.572;1.106;2023-07-31T01:42:32;99456.94;;;15.75;100.00
74960;BME280;63518;49.572;1.106;2023-07-31T01:44:59;99447.31;;;15.90;100.00
74960;BME280;63518;49.572;1.106;2023-07-31T01:47:26;99438.66;;;16.09;100.00
74960;BME280;63518;49.572;1.106;2023-07-31T01:49:53;99454.84;;;15.90;100.00
74960;BME280;63518;49.572;1.106;2023-07-31T01:52:20;99428.00;;;15.68;100.00
74960;BME280;63518;49.572;1.106;2023-07-31T01:54:47;99420.50;;;15.86;100.00
74960;BME280;63518;49.572;1.106;2023-07-31T01:57:14;99424.41;;;15.67;100.00
74960;BME280;63518;49.572;1.106;2023-07-31T01:59:41;99402.53;;;15.74;100.00
74960;BME280;63518;49.572;1.106;2023-07-31T02:02:09;99408.56;;;15.94;100.00
74960;BME280;63518;49.572;1.106;2023-07-31T02:04:38;99399.56;;;15.79;100.00
74960;BME280;63518;49.572;1.106;2023-07-31T02:07:06;99397.78;;;15.92;100.00
74960;BME280;63518;49.572;1.106;2023-07-31T02:09:33;99405.28;;;15.66;100.00
74960;BME280;63518;49.572;1.106;2023-07-31T02:12:08;99394.16;;;15.57;100.00
74960;BME280;63518;49.572;1.106;2023-07-31T02:14:35;99395.50;;;15.94;100.00
74960;BME280;63518;49.572;1.106;2023-07-31T02:17:02;99403.66;;;15.82;100.00
74960;BME280;63518;49.572;1.106;2023-07-31T02:19:29;99395.31;;;15.65;100.00
74960;BME280;63518;49.572;1.106;2023-07-31T02:22:00;99392.06;;;15.89;100.00
74960;BME280;63518;49.572;1.106;2023-07-31T02:24:27;99385.69;;;15.88;100.00
74960;BME280;63518;49.572;1.106;2023-07-31T02:26:54;99385.84;;;15.66;100.00
74960;BME280;63518;49.572;1.106;2023-07-31T02:29:24;99368.19;;;15.70;100.00
74960;BME280;63518;49.572;1.106;2023-07-31T02:31:59;99351.69;;;15.83;100.00
74960;BME280;63518;49.572;1.106;2023-07-31T02:34:27;99385.97;;;15.52;100.00
74960;BME280;63518;49.572;1.106;2023-07-31T02:36:53;99371.78;;;15.79;100.00
74960;BME280;63518;49.572;1.106;2023-07-31T02:39:28;99349.53;;;15.45;100.00
74960;BME280;63518;49.572;1.106;2023-07-31T02:42:14;99377.84;;;15.73;100.00
74960;BME280;63518;49.572;1.106;2023-07-31T02:44:43;99364.91;;;15.77;100.00
74960;BME280;63518;49.572;1.106;2023-07-31T02:47:13;99352.50;;;15.74;100.00
74960;BME280;63518;49.572;1.106;2023-07-31T02:49:42;99340.56;;;15.83;100.00
74960;BME280;63518;49.572;1.106;2023-07-31T02:52:13;99335.00;;;15.91;100.00
74960;BME280;63518;49.572;1.106;2023-07-31T02:54:40;99312.31;;;15.80;100.00
74960;BME280;63518;49.572;1.106;2023-07-31T02:57:07;99329.25;;;15.27;100.00
74960;BME280;63518;49.572;1.106;2023-07-31T02:59:34;99327.81;;;15.56;100.00
74960;BME280;63518;49.572;1.106;2023-07-31T03:02:01;99343.66;;;15.64;100.00
74960;BME280;63518;49.572;1.106;2023-07-31T03:04:30;99331.56;;;15.34;100.00
74960;BME280;63518;49.572;1.106;2023-07-31T03:06:57;99340.22;;;15.41;100.00
74960;BME280;63518;49.572;1.106;2023-07-31T03:09:26;99331.25;;;15.52;100.00
74960;BME280;63518;49.572;1.106;2023-07-31T03:11:56;99330.53;;;15.21;100.00
74960;BME280;63518;49.572;1.106;2023-07-31T03:14:24;99332.19;;;15.22;100.00
74960;BME280;63518;49.572;1.106;2023-07-31T03:17:06;99317.00;;;15.19;100.00
74960;BME280;63518;49.572;1.106;2023-07-31T03:19:36;99318.16;;;15.36;100.00
74960;BME280;63518;49.572;1.106;2023-07-31T03:22:03;99332.84;;;15.28;100.00
74960;BME280;63518;49.572;1.106;2023-07-31T03:24:30;99313.63;;;15.00;100.00
74960;BME280;63518;49.572;1.106;2023-07-31T03:27:27;99317.88;;;14.97;100.00
74960;BME280;63518;49.572;1.106;2023-07-31T03:30:30;99272.00;;;14.91;100.00
74960;BME280;63518;49.572;1.106;2023-07-31T03:33:04;99321.50;;;15.15;100.00
74960;BME280;63518;49.572;1.106;2023-07-31T03:35:41;99329.50;;;15.08;100.00
74960;BME280;63518;49.572;1.106;2023-07-31T03:38:08;99323.28;;;15.03;100.00
74960;BME280;63518;49.572;1.106;2023-07-31T03:40:38;99340.56;;;15.00;100.00
74960;BME280;63518;49.572;1.106;2023-07-31T03:43:05;99314.72;;;14.82;100.00
74960;BME280;63518;49.572;1.106;2023-07-31T03:45:34;99322.47;;;15.02;100.00
74960;BME280;63518;49.572;1.106;2023-07-31T03:48:03;99318.16;;;14.79;100.00
74960;BME280;63518;49.572;1.106;2023-07-31T03:50:31;99312.63;;;14.87;100.00
74960;BME280;63518;49.572;1.106;2023-07-31T03:52:58;99324.56;;;14.88;100.00
74960;BME280;63518;49.572;1.106;2023-07-31T03:55:37;99330.44;;;14.95;100.00
74960;BME280;63518;49.572;1.106;2023-07-31T03:58:10;99312.19;;;14.94;100.00
74960;BME280;63518;49.572;1.106;2023-07-31T04:00:40;99314.28;;;14.97;100.00
74960;BME280;63518;49.572;1.106;2023-07-31T04:03:09;99322.41;;;14.85;100.00
74960;BME280;63518;49.572;1.106;2023-07-31T04:05:40;99316.91;;;14.93;100.00
74960;BME280;63518;49.572;1.106;2023-07-31T04:08:09;99313.81;;;14.95;100.00
74960;BME280;63518;49.572;1.106;2023-07-31T04:10:36;99293.22;;;14.96;100.00
74960;BME280;63518;49.572;1.106;2023-07-31T04:13:12;99309.34;;;15.25;100.00
74960;BME280;63518;49.572;1.106;2023-07-31T04:15:39;99288.25;;;14.76;100.00
74960;BME280;63518;49.572;1.106;2023-07-31T04:18:25;99290.56;;;14.74;100.00
74960;BME280;63518;49.572;1.106;2023-07-31T04:20:55;99314.38;;;14.75;100.00
74960;BME280;63518;49.572;1.106;2023-07-31T04:23:27;99292.41;;;14.95;100.00
74960;BME280;63518;49.572;1.106;2023-07-31T04:25:54;99308.69;;;14.80;100.00
74960;BME280;63518;49.572;1.106;2023-07-31T04:28:24;99304.59;;;14.77;100.00
74960;BME280;63518;49.572;1.106;2023-07-31T04:30:53;99298.59;;;14.92;100.00
74960;BME280;63518;49.572;1.106;2023-07-31T04:33:20;99309.91;;;15.13;100.00
74960;BME280;63518;49.572;1.106;2023-07-31T04:36:13;99285.13;;;14.68;100.00
74960;BME280;63518;49.572;1.106;2023-07-31T04:38:56;99258.69;;;14.54;100.00
74960;BME280;63518;49.572;1.106;2023-07-31T04:41:29;99292.84;;;14.72;100.00
74960;BME280;63518;49.572;1.106;2023-07-31T04:44:03;99284.53;;;14.80;100.00
74960;BME280;63518;49.572;1.106;2023-07-31T04:46:37;99292.38;;;14.78;100.00
74960;BME280;63518;49.572;1.106;2023-07-31T04:49:07;99283.63;;;15.02;100.00
74960;BME280;63518;49.572;1.106;2023-07-31T04:51:36;99266.53;;;14.69;100.00
74960;BME280;63518;49.572;1.106;2023-07-31T04:54:06;99285.06;;;15.00;100.00
74960;BME280;63518;49.572;1.106;2023-07-31T04:56:33;99277.03;;;14.81;100.00
74960;BME280;63518;49.572;1.106;2023-07-31T04:59:04;99278.22;;;14.97;100.00
74960;BME280;63518;49.572;1.106;2023-07-31T05:02:05;99192.25;;;14.40;100.00
74960;BME280;63518;49.572;1.106;2023-07-31T05:04:36;99260.72;;;14.79;100.00
74960;BME280;63518;49.572;1.106;2023-07-31T05:07:05;99277.56;;;15.00;100.00
74960;BME280;63518;49.572;1.106;2023-07-31T05:09:37;99268.06;;;14.84;100.00
74960;BME280;63518;49.572;1.106;2023-07-31T05:12:08;99260.88;;;14.83;100.00
74960;BME280;63518;49.572;1.106;2023-07-31T05:14:35;99278.72;;;15.08;100.00
74960;BME280;63518;49.572;1.106;2023-07-31T05:17:22;99258.94;;;15.01;100.00
74960;BME280;63518;49.572;1.106;2023-07-31T05:19:56;99265.34;;;15.18;100.00
74960;BME280;63518;49.572;1.106;2023-07-31T05:22:25;99256.69;;;15.11;100.00
74960;BME280;63518;49.572;1.106;2023-07-31T05:25:05;99242.41;;;14.69;100.00
74960;BME280;63518;49.572;1.106;2023-07-31T05:27:41;99271.28;;;15.26;100.00
74960;BME280;63518;49.572;1.106;2023-07-31T05:30:08;99262.72;;;15.13;100.00
74960;BME280;63518;49.572;1.106;2023-07-31T05:32:35;99267.19;;;15.23;100.00
74960;BME280;63518;49.572;1.106;2023-07-31T05:35:06;99251.94;;;15.03;100.00
74960;BME280;63518;49.572;1.106;2023-07-31T05:37:53;99256.41;;;15.21;100.00
74960;BME280;63518;49.572;1.106;2023-07-31T05:41:20;99244.91;;;15.06;100.00
74960;BME280;63518;49.572;1.106;2023-07-31T05:43:48;99262.25;;;15.11;100.00
74960;BME280;63518;49.572;1.106;2023-07-31T05:46:41;99252.81;;;15.30;100.00
74960;BME280;63518;49.572;1.106;2023-07-31T05:49:36;99239.75;;;15.21;100.00
74960;BME280;63518;49.572;1.106;2023-07-31T05:52:08;99171.59;;;14.89;100.00
74960;BME280;63518;49.572;1.106;2023-07-31T05:54:35;99251.50;;;15.44;100.00
74960;BME280;63518;49.572;1.106;2023-07-31T05:57:42;99255.59;;;15.30;100.00
74960;BME280;63518;49.572;1.106;2023-07-31T06:00:20;99170.13;;;14.92;100.00
74960;BME280;63518;49.572;1.106;2023-07-31T06:02:58;99197.09;;;15.17;100.00
74960;BME280;63518;49.572;1.106;2023-07-31T06:05:28;99201.88;;;15.34;100.00
74960;BME280;63518;49.572;1.106;2023-07-31T06:08:16;99234.50;;;15.63;100.00
74960;BME280;63518;49.572;1.106;2023-07-31T06:10:50;99238.94;;;15.38;100.00
74960;BME280;63518;49.572;1.106;2023-07-31T06:13:18;99233.69;;;15.63;100.00
74960;BME280;63518;49.572;1.106;2023-07-31T06:15:47;99243.25;;;16.00;100.00
74960;BME280;63518;49.572;1.106;2023-07-31T06:18:14;99227.31;;;15.62;100.00
74960;BME280;63518;49.572;1.106;2023-07-31T06:20:49;99220.44;;;15.68;100.00
74960;BME280;63518;49.572;1.106;2023-07-31T06:23:23;99228.28;;;15.66;100.00
74960;BME280;63518;49.572;1.106;2023-07-31T06:25:50;99237.06;;;15.94;100.00
74960;BME280;63518;49.572;1.106;2023-07-31T06:28:28;99211.41;;;15.97;100.00
74960;BME280;63518;49.572;1.106;2023-07-31T06:31:00;99215.56;;;16.29;100.00
74960;BME280;63518;49.572;1.106;2023-07-31T06:33:28;99224.56;;;16.26;100.00
74960;BME280;63518;49.572;1.106;2023-07-31T06:35:55;99237.03;;;16.20;100.00
74960;BME280;63518;49.572;1.106;2023-07-31T06:38:27;99209.69;;;16.22;100.00
74960;BME280;63518;49.572;1.106;2023-07-31T06:41:01;99221.97;;;16.51;100.00
74960;BME280;63518;49.572;1.106;2023-07-31T06:43:28;99223.75;;;16.17;100.00
74960;BME280;63518;49.572;1.106;2023-07-31T06:45:55;99223.94;;;16.12;100.00
74960;BME280;63518;49.572;1.106;2023-07-31T06:48:23;99229.94;;;16.70;100.00
74960;BME280;63518;49.572;1.106;2023-07-31T06:50:50;99232.88;;;16.64;100.00
74960;BME280;63518;49.572;1.106;2023-07-31T06:53:17;99234.38;;;16.91;100.00
74960;BME280;63518;49.572;1.106;2023-07-31T06:55:44;99237.81;;;16.88;100.00
74960;BME280;63518;49.572;1.106;2023-07-31T06:58:18;99229.13;;;16.90;100.00
74960;BME280;63518;49.572;1.106;2023-07-31T07:00:45;99222.97;;;17.05;100.00
74960;BME280;63518;49.572;1.106;2023-07-31T07:03:14;99226.09;;;16.83;100.00
74960;BME280;63518;49.572;1.106;2023-07-31T07:05:41;99220.53;;;16.83;100.00
74960;BME280;63518;49.572;1.106;2023-07-31T07:08:08;99212.03;;;16.79;100.00
74960;BME280;63518;49.572;1.106;2023-07-31T07:10:35;99229.56;;;17.01;100.00
74960;BME280;63518;49.572;1.106;2023-07-31T07:13:03;99228.78;;;17.21;100.00
74960;BME280;63518;49.572;1.106;2023-07-31T07:15:30;99218.50;;;17.13;100.00
74960;BME280;63518;49.572;1.106;2023-07-31T07:17:57;99228.25;;;16.98;100.00
74960;BME280;63518;49.572;1.106;2023-07-31T07:20:24;99231.00;;;17.07;100.00
74960;BME280;63518;49.572;1.106;2023-07-31T07:22:51;99234.75;;;16.81;100.00
74960;BME280;63518;49.572;1.106;2023-07-31T07:25:18;99221.56;;;17.62;100.00
74960;BME280;63518;49.572;1.106;2023-07-31T07:27:45;99221.50;;;17.29;100.00
74960;BME280;63518;49.572;1.106;2023-07-31T07:30:12;99216.47;;;17.43;100.00
74960;BME280;63518;49.572;1.106;2023-07-31T07:32:48;99223.75;;;17.89;100.00
74960;BME280;63518;49.572;1.106;2023-07-31T07:35:15;99225.00;;;17.80;100.00
74960;BME280;63518;49.572;1.106;2023-07-31T07:37:42;99217.06;;;18.02;100.00
74960;BME280;63518;49.572;1.106;2023-07-31T07:40:12;99208.78;;;17.94;100.00
74960;BME280;63518;49.572;1.106;2023-07-31T07:42:44;99172.88;;;17.26;100.00
74960;BME280;63518;49.572;1.106;2023-07-31T07:45:12;99219.41;;;17.46;100.00
74960;BME280;63518;49.572;1.106;2023-07-31T07:47:40;99205.94;;;18.15;100.00
74960;BME280;63518;49.572;1.106;2023-07-31T07:50:08;99210.72;;;17.81;100.00
74960;BME280;63518;49.572;1.106;2023-07-31T07:52:35;99216.66;;;17.92;100.00
74960;BME280;63518;49.572;1.106;2023-07-31T07:55:03;99197.31;;;18.08;100.00
74960;BME280;63518;49.572;1.106;2023-07-31T07:57:30;99227.25;;;18.68;100.00
74960;BME280;63518;49.572;1.106;2023-07-31T07:59:57;99219.84;;;18.02;100.00
74960;BME280;63518;49.572;1.106;2023-07-31T08:02:23;99219.19;;;18.18;100.00
74960;BME280;63518;49.572;1.106;2023-07-31T08:04:50;99197.59;;;17.82;100.00
74960;BME280;63518;49.572;1.106;2023-07-31T08:07:17;99202.22;;;18.11;100.00
74960;BME280;63518;49.572;1.106;2023-07-31T08:09:44;99193.41;;;18.33;100.00
74960;BME280;63518;49.572;1.106;2023-07-31T08:12:11;99181.97;;;18.01;100.00
74960;BME280;63518;49.572;1.106;2023-07-31T08:14:38;99173.00;;;17.96;100.00
74960;BME280;63518;49.572;1.106;2023-07-31T08:17:05;99191.06;;;18.11;100.00
74960;BME280;63518;49.572;1.106;2023-07-31T08:19:32;99195.13;;;18.13;100.00
74960;BME280;63518;49.572;1.106;2023-07-31T08:21:59;99195.47;;;18.48;100.00
74960;BME280;63518;49.572;1.106;2023-07-31T08:24:26;99179.31;;;17.72;100.00
74960;BME280;63518;49.572;1.106;2023-07-31T08:26:53;99189.16;;;18.02;100.00
74960;BME280;63518;49.572;1.106;2023-07-31T08:29:20;99156.22;;;17.71;100.00
74960;BME280;63518;49.572;1.106;2023-07-31T08:31:47;99177.97;;;17.78;100.00
74960;BME280;63518;49.572;1.106;2023-07-31T08:34:14;99173.50;;;17.65;100.00
74960;BME280;63518;49.572;1.106;2023-07-31T08:36:40;99178.56;;;17.30;100.00
74960;BME280;63518;49.572;1.106;2023-07-31T08:39:10;99148.56;;;17.14;100.00
74960;BME280;63518;49.572;1.106;2023-07-31T08:41:40;99172.41;;;17.24;100.00
74960;BME280;63518;49.572;1.106;2023-07-31T08:44:07;99178.91;;;17.28;100.00
74960;BME280;63518;49.572;1.106;2023-07-31T08:46:34;99178.88;;;17.16;100.00
74960;BME280;63518;49.572;1.106;2023-07-31T08:49:04;99186.06;;;17.17;100.00
74960;BME280;63518;49.572;1.106;2023-07-31T08:51:34;99177.91;;;16.91;100.00
74960;BME280;63518;49.572;1.106;2023-07-31T08:54:01;99161.28;;;16.53;100.00
74960;BME280;63518;49.572;1.106;2023-07-31T08:56:32;99185.06;;;16.71;100.00
74960;BME280;63518;49.572;1.106;2023-07-31T08:59:02;99165.03;;;16.78;100.00
74960;BME280;63518;49.572;1.106;2023-07-31T09:01:35;99182.31;;;16.92;100.00
74960;BME280;63518;49.572;1.106;2023-07-31T09:04:04;99177.75;;;16.87;100.00
74960;BME280;63518;49.572;1.106;2023-07-31T09:06:32;99147.78;;;16.63;100.00
74960;BME280;63518;49.572;1.106;2023-07-31T09:09:01;99174.09;;;16.75;100.00
74960;BME280;63518;49.572;1.106;2023-07-31T09:11:28;99161.91;;;16.79;100.00
74960;BME280;63518;49.572;1.106;2023-07-31T09:13:57;99162.09;;;16.74;100.00
74960;BME280;63518;49.572;1.106;2023-07-31T09:16:28;99177.88;;;16.70;100.00
74960;BME280;63518;49.572;1.106;2023-07-31T09:18:59;99155.41;;;16.75;100.00
74960;BME280;63518;49.572;1.106;2023-07-31T09:21:28;99176.81;;;16.83;100.00
74960;BME280;63518;49.572;1.106;2023-07-31T09:23:55;99157.63;;;16.82;100.00
74960;BME280;63518;49.572;1.106;2023-07-31T09:26:32;99159.25;;;16.62;100.00
74960;BME280;63518;49.572;1.106;2023-07-31T09:29:00;99162.84;;;16.62;100.00
74960;BME280;63518;49.572;1.106;2023-07-31T09:31:41;99137.88;;;16.54;100.00
74960;BME280;63518;49.572;1.106;2023-07-31T09:34:09;99155.19;;;16.80;100.00
74960;BME280;63518;49.572;1.106;2023-07-31T09:36:42;99141.75;;;16.61;100.00
74960;BME280;63518;49.572;1.106;2023-07-31T09:39:10;99135.00;;;16.42;100.00
74960;BME280;63518;49.572;1.106;2023-07-31T09:41:39;99149.41;;;16.64;100.00
74960;BME280;63518;49.572;1.106;2023-07-31T09:44:06;99151.47;;;16.76;100.00
74960;BME280;63518;49.572;1.106;2023-07-31T09:46:37;99134.09;;;16.79;100.00
74960;BME280;63518;49.572;1.106;2023-07-31T09:49:12;99140.63;;;16.83;100.00
74960;BME280;63518;49.572;1.106;2023-07-31T09:51:41;99137.19;;;16.57;100.00
74960;BME280;63518;49.572;1.106;2023-07-31T09:54:10;99130.91;;;16.39;100.00
74960;BME280;63518;49.572;1.106;2023-07-31T09:56:45;99143.25;;;16.59;100.00
74960;BME280;63518;49.572;1.106;2023-07-31T09:59:13;99140.59;;;16.33;100.00
74960;BME280;63518;49.572;1.106;2023-07-31T10:01:43;99146.31;;;16.37;100.00
74960;BME280;63518;49.572;1.106;2023-07-31T10:04:10;99133.53;;;16.44;100.00
74960;BME280;63518;49.572;1.106;2023-07-31T10:06:38;99123.88;;;16.42;100.00
74960;BME280;63518;49.572;1.106;2023-07-31T10:09:08;99135.97;;;16.67;100.00
74960;BME280;63518;49.572;1.106;2023-07-31T10:11:42;99132.59;;;16.82;100.00
74960;BME280;63518;49.572;1.106;2023-07-31T10:14:11;99125.47;;;16.51;100.00
74960;BME280;63518;49.572;1.106;2023-07-31T10:16:38;99140.41;;;16.68;100.00
74960;BME280;63518;49.572;1.106;2023-07-31T10:19:07;99124.25;;;16.61;100.00
74960;BME280;63518;49.572;1.106;2023-07-31T10:21:35;99119.47;;;16.41;100.00
74960;BME280;63518;49.572;1.106;2023-07-31T10:24:04;99121.41;;;16.70;100.00
74960;BME280;63518;49.572;1.106;2023-07-31T10:26:32;99144.38;;;16.58;100.00
74960;BME280;63518;49.572;1.106;2023-07-31T10:29:03;99138.06;;;16.11;100.00
74960;BME280;63518;49.572;1.106;2023-07-31T10:31:30;99117.13;;;16.13;100.00
74960;BME280;63518;49.572;1.106;2023-07-31T10:33:59;99133.66;;;16.48;100.00
74960;BME280;63518;49.572;1.106;2023-07-31T10:36:27;99109.66;;;16.43;100.00
74960;BME280;63518;49.572;1.106;2023-07-31T10:38:57;99132.38;;;16.07;100.00
74960;BME280;63518;49.572;1.106;2023-07-31T10:41:30;99136.25;;;16.15;100.00
74960;BME280;63518;49.572;1.106;2023-07-31T10:44:00;99135.81;;;16.42;100.00
74960;BME280;63518;49.572;1.106;2023-07-31T10:46:30;99124.53;;;16.39;100.00
74960;BME280;63518;49.572;1.106;2023-07-31T10:49:01;99128.09;;;16.48;100.00
74960;BME280;63518;49.572;1.106;2023-07-31T10:51:35;99104.09;;;16.34;100.00
74960;BME280;63518;49.572;1.106;2023-07-31T10:54:12;99116.22;;;16.80;100.00
74960;BME280;63518;49.572;1.106;2023-07-31T10:56:44;99109.03;;;16.58;100.00
74960;BME280;63518;49.572;1.106;2023-07-31T10:59:11;99108.34;;;16.82;100.00
74960;BME280;63518;49.572;1.106;2023-07-31T11:01:56;99099.09;;;16.90;100.00
74960;BME280;63518;49.572;1.106;2023-07-31T11:04:25;99087.19;;;16.69;100.00
74960;BME280;63518;49.572;1.106;2023-07-31T11:07:02;99100.13;;;16.65;100.00
74960;BME280;63518;49.572;1.106;2023-07-31T11:09:32;99102.50;;;16.96;100.00
74960;BME280;63518;49.572;1.106;2023-07-31T11:11:59;99085.41;;;16.64;100.00
74960;BME280;63518;49.572;1.106;2023-07-31T11:14:26;99103.13;;;16.81;100.00
74960;BME280;63518;49.572;1.106;2023-07-31T11:16:53;99092.25;;;16.88;100.00
74960;BME280;63518;49.572;1.106;2023-07-31T11:19:24;99075.59;;;16.67;100.00
74960;BME280;63518;49.572;1.106;2023-07-31T11:21:52;99081.47;;;16.86;100.00
74960;BME280;63518;49.572;1.106;2023-07-31T11:24:20;99079.03;;;16.85;100.00
74960;BME280;63518;49.572;1.106;2023-07-31T11:26:49;99075.09;;;17.07;100.00
74960;BME280;63518;49.572;1.106;2023-07-31T11:29:17;99062.28;;;16.73;100.00
74960;BME280;63518;49.572;1.106;2023-07-31T11:31:46;99078.38;;;16.67;100.00
74960;BME280;63518;49.572;1.106;2023-07-31T11:34:13;99075.59;;;17.21;100.00
74960;BME280;63518;49.572;1.106;2023-07-31T11:36:40;99067.56;;;16.86;100.00
74960;BME280;63518;49.572;1.106;2023-07-31T11:39:08;99061.28;;;16.89;100.00
74960;BME280;63518;49.572;1.106;2023-07-31T11:41:36;99064.84;;;17.32;100.00
74960;BME280;63518;49.572;1.106;2023-07-31T11:44:03;99059.69;;;17.55;100.00
74960;BME280;63518;49.572;1.106;2023-07-31T11:46:50;99050.78;;;17.16;100.00
74960;BME280;63518;49.572;1.106;2023-07-31T11:49:17;99056.13;;;17.00;100.00
74960;BME280;63518;49.572;1.106;2023-07-31T11:51:43;99060.66;;;17.26;100.00
74960;BME280;63518;49.572;1.106;2023-07-31T11:54:11;99061.56;;;17.63;100.00
74960;BME280;63518;49.572;1.106;2023-07-31T11:56:39;99053.22;;;17.30;100.00
74960;BME280;63518;49.572;1.106;2023-07-31T11:59:06;99036.09;;;17.07;100.00
74960;BME280;63518;49.572;1.106;2023-07-31T12:01:36;99038.75;;;17.36;100.00
74960;BME280;63518;49.572;1.106;2023-07-31T12:04:03;99045.88;;;17.58;100.00
74960;BME280;63518;49.572;1.106;2023-07-31T12:06:34;99034.63;;;17.55;100.00
74960;BME280;63518;49.572;1.106;2023-07-31T12:09:03;99026.94;;;17.52;100.00
74960;BME280;63518;49.572;1.106;2023-07-31T12:11:30;99032.84;;;17.50;100.00
74960;BME280;63518;49.572;1.106;2023-07-31T12:13:57;99052.91;;;17.31;100.00
74960;BME280;63518;49.572;1.106;2023-07-31T12:16:26;99040.50;;;17.53;100.00
74960;BME280;63518;49.572;1.106;2023-07-31T12:18:54;99042.38;;;17.49;100.00
74960;BME280;63518;49.572;1.106;2023-07-31T12:21:21;99041.94;;;17.71;100.00
74960;BME280;63518;49.572;1.106;2023-07-31T12:23:47;99044.47;;;17.64;100.00
74960;BME280;63518;49.572;1.106;2023-07-31T12:26:17;99039.72;;;17.89;100.00
74960;BME280;63518;49.572;1.106;2023-07-31T12:28:46;99033.56;;;17.84;100.00
74960;BME280;63518;49.572;1.106;2023-07-31T12:31:21;99038.41;;;17.50;100.00
74960;BME280;63518;49.572;1.106;2023-07-31T12:33:50;99011.94;;;17.32;100.00
74960;BME280;63518;49.572;1.106;2023-07-31T12:36:20;99033.72;;;17.30;100.00
74960;BME280;63518;49.572;1.106;2023-07-31T12:38:48;99036.59;;;17.54;100.00
74960;BME280;63518;49.572;1.106;2023-07-31T12:41:14;99027.50;;;17.69;100.00
74960;BME280;63518;49.572;1.106;2023-07-31T12:43:43;99025.09;;;17.68;100.00
74960;BME280;63518;49.572;1.106;2023-07-31T12:46:10;99016.47;;;17.61;100.00
74960;BME280;63518;49.572;1.106;2023-07-31T12:48:38;99003.59;;;17.93;100.00
74960;BME280;63518;49.572;1.106;2023-07-31T12:51:05;99022.19;;;17.77;100.00
74960;BME280;63518;49.572;1.106;2023-07-31T12:53:33;99011.50;;;17.66;100.00
74960;BME280;63518;49.572;1.106;2023-07-31T12:56:01;99006.03;;;17.58;100.00
74960;BME280;63518;49.572;1.106;2023-07-31T12:58:28;99005.47;;;17.64;100.00
74960;BME280;63518;49.572;1.106;2023-07-31T13:00:54;99004.41;;;17.81;100.00
74960;BME280;63518;49.572;1.106;2023-07-31T13:03:21;99006.88;;;17.70;100.00
74960;BME280;63518;49.572;1.106;2023-07-31T13:05:49;98980.72;;;17.87;100.00
74960;BME280;63518;49.572;1.106;2023-07-31T13:08:16;98999.06;;;17.88;100.00
74960;BME280;63518;49.572;1.106;2023-07-31T13:10:44;98991.63;;;17.92;100.00
74960;BME280;63518;49.572;1.106;2023-07-31T13:13:11;98997.78;;;18.22;100.00